Time;durP1;ratioP1;P1;durP2;ratioP2;P2;SDS_P1;SDS_P2;PMS_P1;PMS_P2;Temp;Humidity;BMP_temperature;BMP_pressure;BME280_temperature;BME280_humidity;BME280_pressure;Samples;Min_cycle;Max_cycle;Signal;HPM_P1;HPM_P2
2024/02/27 00:02:22;;;;;;;13.20;5.75;;;;;;;10.48;65.86;99643.72;5033972;28;20026;-26
2024/02/27 00:04:48;;;;;;;11.20;6.00;;;;;;;10.57;66.60;99652.34;5033602;28;20460;-27
2024/02/27 00:07:13;;;;;;;11.32;5.40;;;;;;;10.28;68.22;99650.84;5038828;28;20031;-27
2024/02/27 00:09:45;;;;;;;11.93;5.78;;;;;;;10.41;67.16;99650.06;5053821;28;20105;-27
2024/02/27 00:12:10;;;;;;;13.63;5.95;;;;;;;10.78;66.11;99648.63;5053993;28;20086;-27
2024/02/27 00:14:36;;;;;;;11.07;5.85;;;;;;;10.83;66.72;99645.34;5053662;28;20040;-27
2024/02/27 00:17:01;;;;;;;13.90;6.38;;;;;;;10.62;67.02;99651.72;5053884;28;20021;-26
2024/02/27 00:19:27;;;;;;;15.35;6.65;;;;;;;10.43;69.21;99656.00;5054044;28;20456;-27
2024/02/27 00:21:53;;;;;;;16.00;6.35;;;;;;;10.59;68.82;99650.28;5054356;28;20107;-27
2024/02/27 00:24:19;;;;;;;15.70;6.70;;;;;;;10.54;68.15;99650.88;5053947;28;20029;-27
2024/02/27 00:26:44;;;;;;;14.40;6.38;;;;;;;10.54;69.23;99658.06;5053833;28;20044;-27
2024/02/27 00:29:10;;;;;;;15.35;6.07;;;;;;;10.51;69.16;99659.28;5053952;28;20025;-27
2024/02/27 00:31:35;;;;;;;15.48;6.47;;;;;;;10.53;69.18;99656.44;5054233;28;20024;-26
2024/02/27 00:34:00;;;;;;;13.80;6.45;;;;;;;10.65;68.00;99654.78;5053711;28;20397;-27
2024/02/27 00:36:26;;;;;;;14.63;6.05;;;;;;;10.77;67.82;99660.28;5053394;28;20040;-27
2024/02/27 00:38:51;;;;;;;12.60;6.03;;;;;;;10.47;69.36;99659.91;5053477;28;20112;-28
2024/02/27 00:41:16;;;;;;;11.75;6.28;;;;;;;10.38;70.34;99656.63;5054059;28;20409;-27
2024/02/27 00:43:42;;;;;;;12.00;6.07;;;;;;;10.21;70.52;99655.38;5053471;28;20086;-27
2024/02/27 00:46:07;;;;;;;13.32;6.60;;;;;;;10.03;70.83;99653.28;5049076;28;20025;-28
2024/02/27 00:48:34;;;;;;;14.30;6.20;;;;;;;10.23;70.95;99653.31;5033680;28;20036;-27
2024/02/27 00:50:59;;;;;;;17.38;6.43;;;;;;;10.21;70.40;99653.53;5033978;28;20049;-27
2024/02/27 00:53:25;;;;;;;13.60;6.50;;;;;;;10.37;69.66;99652.31;5033490;28;20060;-27
2024/02/27 00:55:50;;;;;;;11.20;6.15;;;;;;;10.19;70.94;99658.22;5033487;28;20525;-28
2024/02/27 00:58:15;;;;;;;12.15;6.68;;;;;;;10.20;71.09;99662.50;5033242;28;20021;-27
2024/02/27 01:00:41;;;;;;;13.38;6.25;;;;;;;10.00;71.85;99659.03;5033480;28;20029;-27
2024/02/27 01:03:06;;;;;;;12.45;6.82;;;;;;;10.39;70.48;99660.09;5033170;28;20017;-28
2024/02/27 01:05:31;;;;;;;14.93;6.95;;;;;;;10.20;71.14;99656.38;5033123;28;20025;-27
2024/02/27 01:07:57;;;;;;;13.25;6.28;;;;;;;10.10;71.44;99670.06;5033139;28;20068;-27
2024/02/27 01:10:22;;;;;;;15.05;6.70;;;;;;;10.39;70.75;99674.22;5033342;28;20037;-26
2024/02/27 01:12:48;;;;;;;15.05;6.70;;;;;;;10.57;70.61;99666.44;5032955;28;20672;-27
2024/02/27 01:15:13;;;;;;;14.32;6.25;;;;;;;9.98;72.31;99668.00;5033111;28;20036;-27
2024/02/27 01:17:38;;;;;;;13.57;6.88;;;;;;;9.84;73.13;99662.84;5032437;28;20034;-26
2024/02/27 01:20:04;;;;;;;12.95;6.82;;;;;;;9.91;73.34;99675.13;5033149;28;20025;-26
2024/02/27 01:22:31;;;;;;;13.25;6.10;;;;;;;9.76;73.53;99663.84;5032745;28;20033;-27
2024/02/27 01:24:58;;;;;;;12.57;6.43;;;;;;;9.85;73.64;99675.13;5032692;28;20448;-27
2024/02/27 01:27:25;;;;;;;14.15;6.90;;;;;;;9.87;73.58;99678.41;5032619;28;20038;-27
2024/02/27 01:29:51;;;;;;;15.20;7.47;;;;;;;9.64;73.96;99682.22;5032905;28;20033;-27
2024/02/27 01:32:17;;;;;;;14.98;7.00;;;;;;;9.34;75.61;99682.47;5032567;28;20397;-26
2024/02/27 01:34:42;;;;;;;18.02;7.03;;;;;;;9.25;76.76;99685.50;5032505;28;20049;-27
2024/02/27 01:37:07;;;;;;;14.48;7.43;;;;;;;9.55;75.37;99686.06;5032560;28;20044;-27
2024/02/27 01:39:33;;;;;;;14.30;6.70;;;;;;;9.53;75.20;99678.28;5032725;28;20033;-27
2024/02/27 01:41:59;;;;;;;16.67;7.60;;;;;;;9.66;75.23;99680.16;5032637;28;20033;-27
2024/02/27 01:44:25;;;;;;;15.63;7.78;;;;;;;9.72;75.14;99675.91;5032575;28;20025;-27
2024/02/27 01:46:51;;;;;;;17.60;7.03;;;;;;;9.69;74.97;99677.13;5032204;28;20040;-27
2024/02/27 01:49:17;;;;;;;15.38;7.60;;;;;;;9.77;74.41;99674.28;5032323;28;20029;-26
2024/02/27 01:51:44;;;;;;;12.93;6.53;;;;;;;9.53;75.16;99664.19;5032147;28;20026;-27
2024/02/27 01:54:12;;;;;;;14.27;7.03;;;;;;;9.55;75.72;99675.44;5032150;28;20088;-26
2024/02/27 01:56:38;;;;;;;15.63;7.85;;;;;;;9.50;75.14;99688.47;5031942;28;20163;-26
2024/02/27 01:59:05;;;;;;;11.75;7.07;;;;;;;9.33;75.76;99678.19;5051805;28;20159;-27
2024/02/27 02:01:31;;;;;;;14.35;7.55;;;;;;;9.19;76.75;99677.31;5051714;28;20042;-26
2024/02/27 02:03:57;;;;;;;15.85;7.72;;;;;;;9.33;76.13;99678.19;5051980;28;20021;-26
2024/02/27 02:06:23;;;;;;;17.27;8.13;;;;;;;9.42;76.96;99678.03;5045451;28;20104;-26
2024/02/27 02:08:48;;;;;;;13.93;7.53;;;;;;;9.31;77.09;99672.28;5032100;28;20121;-26
2024/02/27 02:11:14;;;;;;;14.77;8.15;;;;;;;9.32;76.91;99676.53;5031780;28;20036;-28
2024/02/27 02:13:39;;;;;;;18.92;8.60;;;;;;;9.41;76.81;99671.91;5031826;28;20025;-26
2024/02/27 02:16:05;;;;;;;16.42;9.02;;;;;;;9.50;76.12;99670.72;5031964;28;20103;-26
2024/02/27 02:18:31;;;;;;;18.85;8.75;;;;;;;9.72;75.33;99675.91;5043592;28;20031;-26
2024/02/27 02:20:56;;;;;;;18.70;8.20;;;;;;;9.77;74.87;99670.81;5041938;28;20428;-26
2024/02/27 02:23:22;;;;;;;21.38;8.25;;;;;;;9.73;75.31;99667.75;5046262;28;20017;-26
2024/02/27 02:25:48;;;;;;;15.05;8.30;;;;;;;9.65;75.49;99665.22;5051670;28;20083;-26
2024/02/27 02:28:14;;;;;;;22.05;8.40;;;;;;;9.81;74.59;99668.59;5051656;28;20021;-26
2024/02/27 02:30:41;;;;;;;16.88;8.30;;;;;;;9.47;76.50;99672.94;5051719;28;20047;-26
2024/02/27 02:33:07;;;;;;;17.60;9.10;;;;;;;9.25;77.59;99672.22;5051548;28;20032;-26
2024/02/27 02:35:32;;;;;;;18.15;8.32;;;;;;;9.21;77.87;99663.81;5051859;28;20025;-26
2024/02/27 02:37:57;;;;;;;14.85;8.77;;;;;;;9.41;77.27;99668.44;5051481;28;20096;-26
2024/02/27 02:40:23;;;;;;;16.70;8.93;;;;;;;9.14;78.02;99668.31;5051222;28;20112;-25
2024/02/27 02:42:49;;;;;;;17.15;8.73;;;;;;;9.20;77.87;99667.50;5051225;28;20151;-26
2024/02/27 02:45:14;;;;;;;19.10;9.27;;;;;;;9.15;78.25;99668.09;5051425;28;20029;-26
2024/02/27 02:47:40;;;;;;;17.50;8.77;;;;;;;9.48;77.43;99655.97;5051182;28;20099;-26
2024/02/27 02:50:07;;;;;;;15.73;8.43;;;;;;;9.26;77.63;99671.22;5051551;28;20417;-25
2024/02/27 02:52:33;;;;;;;19.92;9.05;;;;;;;9.30;77.75;99669.81;5051216;28;20465;-27
2024/02/27 02:55:02;;;;;;;20.63;9.07;;;;;;;9.17;77.98;99659.94;5051566;28;20028;-27
2024/02/27 02:57:29;;;;;;;19.88;8.98;;;;;;;9.33;77.88;99672.09;5051338;28;20082;-27
2024/02/27 02:59:54;;;;;;;14.82;8.55;;;;;;;9.15;78.40;99673.38;5051250;28;20433;-27
2024/02/27 03:02:20;;;;;;;14.80;8.73;;;;;;;9.14;78.66;99671.78;5051156;28;20058;-27
2024/02/27 03:04:45;;;;;;;20.60;9.18;;;;;;;9.16;79.25;99679.53;5051054;28;20021;-27
2024/02/27 03:07:10;;;;;;;25.08;9.93;;;;;;;9.33;78.00;99672.88;5036592;28;20029;-26
2024/02/27 03:09:37;;;;;;;16.27;9.10;;;;;;;9.29;78.19;99695.53;5044061;28;20029;-27
2024/02/27 03:12:02;;;;;;;18.27;8.88;;;;;;;9.11;79.14;99689.91;5055071;28;20491;-26
2024/02/27 03:14:28;;;;;;;18.75;9.68;;;;;;;9.53;77.92;99690.75;5054954;28;20021;-27
2024/02/27 03:16:54;;;;;;;20.33;10.07;;;;;;;9.45;77.20;99696.25;5055087;28;20121;-26
2024/02/27 03:19:19;;;;;;;20.52;9.57;;;;;;;9.37;78.12;99692.72;5048892;28;20041;-26
2024/02/27 03:21:45;;;;;;;18.05;9.68;;;;;;;9.34;78.42;99705.56;5049980;28;20103;-27
2024/02/27 03:24:10;;;;;;;17.38;8.95;;;;;;;9.20;78.32;99702.84;5055111;28;20051;-25
2024/02/27 03:26:36;;;;;;;26.55;9.65;;;;;;;9.35;77.95;99710.69;5054827;28;20056;-26
2024/02/27 03:29:01;;;;;;;21.83;10.45;;;;;;;9.27;78.81;99716.16;5054614;28;20028;-26
2024/02/27 03:31:27;;;;;;;17.85;9.02;;;;;;;8.82;80.07;99713.00;5054789;28;20378;-26
2024/02/27 03:33:52;;;;;;;23.08;9.63;;;;;;;8.56;81.86;99717.06;5054244;28;20067;-25
2024/02/27 03:36:17;;;;;;;18.83;10.23;;;;;;;8.59;81.95;99714.03;5054803;28;20079;-27
2024/02/27 03:38:43;;;;;;;21.02;10.90;;;;;;;8.39;83.13;99716.47;5054489;28;20047;-28
2024/02/27 03:41:12;;;;;;;20.23;11.00;;;;;;;8.27;83.84;99725.94;5054472;28;20025;-27
2024/02/27 03:43:38;;;;;;;20.92;11.50;;;;;;;8.10;85.23;99724.56;5054302;28;20093;-25
2024/02/27 03:46:03;;;;;;;26.88;12.07;;;;;;;8.12;84.71;99725.19;5054411;28;20420;-25
2024/02/27 03:48:29;;;;;;;25.35;12.85;;;;;;;8.25;83.70;99732.47;5054395;28;20120;-37
2024/02/27 03:50:54;;;;;;;24.67;12.27;;;;;;;7.95;85.16;99736.00;5054035;28;20127;-36
2024/02/27 03:53:19;;;;;;;23.25;12.15;;;;;;;7.92;85.33;99735.56;5054460;28;20093;-36
2024/02/27 03:55:45;;;;;;;26.08;13.13;;;;;;;7.96;85.71;99729.72;5054172;28;20052;-39
2024/02/27 03:58:10;;;;;;;27.15;13.45;;;;;;;7.73;86.94;99724.56;5053171;28;20024;-40
2024/02/27 04:00:36;;;;;;;26.40;13.55;;;;;;;7.37;88.41;99738.56;5054275;28;20104;-40
2024/02/27 04:03:01;;;;;;;29.23;13.88;;;;;;;7.44;88.16;99734.19;5053826;28;20029;-38
2024/02/27 04:05:26;;;;;;;27.35;13.70;;;;;;;7.80;86.46;99736.03;5053785;28;20025;-39
2024/02/27 04:07:52;;;;;;;26.15;13.40;;;;;;;7.75;86.56;99738.44;5054043;28;20025;-40
2024/02/27 04:10:19;;;;;;;28.55;13.55;;;;;;;7.87;86.33;99736.13;5048070;28;20080;-39
2024/02/27 04:12:44;;;;;;;27.63;13.70;;;;;;;7.48;88.07;99739.91;5042263;28;20028;-39
2024/02/27 04:15:10;;;;;;;28.42;13.73;;;;;;;7.20;89.63;99740.53;5043426;28;20020;-40
2024/02/27 04:17:35;;;;;;;28.83;13.77;;;;;;;7.12;89.88;99730.06;5039299;28;20048;-40
2024/02/27 04:20:00;;;;;;;28.05;13.60;;;;;;;7.35;88.76;99740.56;5033639;28;20057;-40
2024/02/27 04:22:26;;;;;;;28.85;15.10;;;;;;;7.42;88.33;99736.19;5033852;28;20025;-38
2024/02/27 04:24:51;;;;;;;28.10;14.45;;;;;;;7.51;88.09;99741.38;5033637;28;20510;-38
2024/02/27 04:27:16;;;;;;;30.83;14.63;;;;;;;7.70;87.11;99743.47;5033578;28;20481;-39
2024/02/27 04:29:42;;;;;;;31.00;14.80;;;;;;;7.75;86.58;99748.19;5033532;28;20078;-40
2024/02/27 04:32:07;;;;;;;28.48;13.80;;;;;;;7.51;87.27;99747.50;5032070;28;20021;-40
2024/02/27 04:34:33;;;;;;;34.08;14.30;;;;;;;7.28;88.71;99757.34;5033624;28;20025;-39
2024/02/27 04:36:59;;;;;;;32.90;14.80;;;;;;;7.47;87.92;99750.69;5033394;28;20025;-39
2024/02/27 04:39:24;;;;;;;33.85;16.42;;;;;;;7.52;87.43;99762.38;5033758;28;20029;-39
2024/02/27 04:41:50;;;;;;;28.48;14.70;;;;;;;7.51;86.81;99757.25;5033368;28;20017;-39
2024/02/27 04:44:19;;;;;;;34.83;15.93;;;;;;;7.30;87.41;99768.59;5033015;28;20487;-39
2024/02/27 04:46:45;;;;;;;43.65;23.00;;;;;;;7.14;88.46;99773.03;5033499;28;20047;-39
2024/02/27 04:49:10;;;;;;;37.30;17.75;;;;;;;7.06;89.65;99778.38;5033209;28;20469;-38
2024/02/27 04:51:36;;;;;;;32.35;15.68;;;;;;;7.32;88.25;99777.97;5033349;28;20083;-40
2024/02/27 04:54:02;;;;;;;33.15;17.10;;;;;;;7.47;87.74;99777.19;5033236;28;20109;-39
2024/02/27 04:56:27;;;;;;;34.80;17.67;;;;;;;7.26;88.37;99776.06;5033170;28;20087;-38
2024/02/27 04:58:52;;;;;;;38.20;16.92;;;;;;;7.04;89.70;99778.59;5033555;28;20107;-40
2024/02/27 05:01:18;;;;;;;38.50;17.67;;;;;;;7.63;88.68;99782.28;5033437;28;20045;-39
2024/02/27 05:03:43;;;;;;;41.03;18.52;;;;;;;8.00;86.43;99776.03;5033643;28;20053;-40
2024/02/27 05:06:09;;;;;;;37.72;17.20;;;;;;;7.51;87.49;99791.69;5033657;28;20022;-39
2024/02/27 05:08:34;;;;;;;40.95;18.27;;;;;;;7.68;88.39;99787.84;5032825;28;20025;-40
2024/02/27 05:11:00;;;;;;;41.08;19.63;;;;;;;7.28;90.22;99784.63;5032633;28;20029;-38
2024/02/27 05:13:26;;;;;;;38.75;18.48;;;;;;;7.90;87.34;99795.88;5032924;28;20030;-37
2024/02/27 05:15:51;;;;;;;40.53;17.95;;;;;;;8.51;93.30;99796.41;5032838;28;20108;-40
2024/02/27 05:18:17;;;;;;;44.40;18.80;;;;;;;8.31;89.03;99795.34;5032287;28;20025;-39
2024/02/27 05:20:42;;;;;;;43.53;19.13;;;;;;;8.43;92.43;99803.66;5031585;28;20025;-40
2024/02/27 05:23:07;;;;;;;44.35;19.20;;;;;;;8.28;86.60;99809.81;5031621;28;20024;-40
2024/02/27 05:25:33;;;;;;;47.10;20.70;;;;;;;8.19;86.87;99816.22;5031055;28;20521;-39
2024/02/27 05:27:58;;;;;;;47.65;21.02;;;;;;;8.02;87.88;99823.56;5029106;28;20033;-40
2024/02/27 05:30:23;;;;;;;53.03;21.80;;;;;;;8.24;86.77;99821.75;5028944;28;20026;-40
2024/02/27 05:32:49;;;;;;;49.25;21.52;;;;;;;8.04;86.93;99826.84;5028667;28;20029;-40
2024/02/27 05:35:14;;;;;;;63.15;23.35;;;;;;;7.93;87.87;99830.78;5033253;28;20509;-40
2024/02/27 05:37:40;;;;;;;57.42;22.40;;;;;;;7.86;87.61;99829.84;5050631;28;20401;-40
2024/02/27 05:40:10;;;;;;;60.33;22.55;;;;;;;8.18;86.72;99833.13;5050835;28;20078;-38
2024/02/27 05:42:35;;;;;;;;;;;;;;;8.35;86.47;99844.34;5051830;28;20112;-39
2024/02/27 05:45:01;;;;;;;52.90;22.45;;;;;;;8.36;85.50;99843.34;5052290;28;19992;-41
2024/02/27 05:47:26;;;;;;;53.55;21.17;;;;;;;8.65;84.27;99846.94;5052411;28;20021;-40
2024/02/27 05:49:53;;;;;;;48.60;20.00;;;;;;;8.08;86.04;99859.09;5041657;28;20099;-37
2024/02/27 05:52:18;;;;;;;48.97;21.10;;;;;;;8.35;86.21;99861.06;5052563;28;20021;-41
2024/02/27 05:54:43;;;;;;;49.47;21.58;;;;;;;8.50;85.05;99861.06;5052090;28;20408;-41
2024/02/27 05:57:11;;;;;;;45.85;21.45;;;;;;;8.65;83.68;99860.22;5051791;28;20054;-41
2024/02/27 05:59:36;;;;;;;45.67;21.23;;;;;;;8.21;85.17;99867.22;5046250;28;20100;-40
2024/02/27 06:02:03;;;;;;;44.80;19.55;;;;;;;7.86;87.01;99863.47;5045692;28;20100;-41
2024/02/27 06:04:28;;;;;;;48.78;21.48;;;;;;;8.12;85.50;99855.06;5043490;28;20100;-42
2024/02/27 06:06:54;;;;;;;54.60;23.05;;;;;;;8.01;86.29;99869.59;5042259;28;20508;-37
2024/02/27 06:09:19;;;;;;;49.35;21.70;;;;;;;8.16;86.00;99864.28;5037596;28;20040;-43
2024/02/27 06:11:44;;;;;;;51.25;22.50;;;;;;;8.10;86.00;99883.59;5048725;28;20083;-44
2024/02/27 06:14:10;;;;;;;53.17;23.38;;;;;;;8.30;84.92;99881.19;5036906;28;20025;-40
2024/02/27 06:16:36;;;;;;;53.03;23.23;;;;;;;8.19;84.53;99879.84;5052231;28;20088;-40
2024/02/27 06:19:02;;;;;;;48.83;22.52;;;;;;;8.06;85.62;99879.66;5046947;28;20032;-40
2024/02/27 06:24:11;;;;;;;46.88;22.85;;;;;;;7.56;88.13;99897.91;5048787;28;20059;-39
2024/02/27 06:26:36;;;;;;;54.92;24.45;;;;;;;7.95;87.09;99896.84;5051246;28;20094;-40
2024/02/27 06:29:02;;;;;;;52.08;24.38;;;;;;;8.29;85.50;99908.72;5041687;28;20363;-40
2024/02/27 06:31:27;;;;;;;54.88;23.83;;;;;;;8.18;84.84;99904.69;5047194;28;20055;-38
2024/02/27 06:33:52;;;;;;;50.03;22.05;;;;;;;7.82;86.34;99908.91;5051823;28;20029;-43
2024/02/27 06:36:18;;;;;;;49.70;22.95;;;;;;;7.50;88.31;99911.84;5040416;28;20021;-40
2024/02/27 06:38:43;;;;;;;54.25;23.15;;;;;;;7.57;88.38;99921.53;5045479;28;20029;-39
2024/02/27 06:41:08;;;;;;;54.33;23.48;;;;;;;7.41;88.72;99924.34;5048523;28;20025;-42
2024/02/27 06:43:34;;;;;;;57.20;24.02;;;;;;;7.60;88.91;99920.38;5040880;28;20013;-41
2024/02/27 06:45:59;;;;;;;59.00;24.92;;;;;;;7.83;87.88;99937.03;5052276;28;20521;-41
2024/02/27 06:48:28;;;;;;;62.83;25.20;;;;;;;7.71;88.59;99933.19;5051454;28;20017;-45
2024/02/27 06:50:54;;;;;;;56.53;24.25;;;;;;;7.67;88.98;99939.00;5051795;28;20020;-41
2024/02/27 06:53:24;;;;;;;60.45;25.17;;;;;;;7.53;88.89;99948.56;5051751;28;20032;-44
2024/02/27 06:55:50;;;;;;;59.92;26.73;;;;;;;7.67;90.25;99942.47;5050229;28;20028;-40
2024/02/27 06:58:16;;;;;;;61.28;25.88;;;;;;;7.91;89.00;99946.72;5037283;28;20029;-40
2024/02/27 07:00:42;;;;;;;54.53;24.58;;;;;;;7.80;88.80;99941.88;5051384;28;20036;-43
2024/02/27 07:03:07;;;;;;;61.40;26.05;;;;;;;8.02;89.12;99953.41;5050660;28;20029;-42
2024/02/27 07:05:33;;;;;;;57.38;26.77;;;;;;;7.94;89.60;99951.69;5050493;28;20021;-42
2024/02/27 07:07:58;;;;;;;59.85;27.45;;;;;;;8.17;87.83;99953.44;5030399;28;20036;-41
2024/02/27 07:10:24;;;;;;;56.03;26.60;;;;;;;8.43;87.51;99950.31;5030281;28;20457;-46
2024/02/27 07:12:49;;;;;;;57.20;27.15;;;;;;;9.02;85.99;99957.34;5042894;28;20114;-39
2024/02/27 07:15:14;;;;;;;59.75;29.02;;;;;;;8.69;84.47;99949.03;5050293;28;20412;-40
2024/02/27 07:17:40;;;;;;;63.47;29.85;;;;;;;8.87;83.56;99946.81;5050114;28;20028;-41
2024/02/27 07:20:09;;;;;;;66.63;30.35;;;;;;;8.80;83.76;99944.06;5049755;28;20025;-37
2024/02/27 07:22:35;;;;;;;62.80;30.40;;;;;;;9.06;82.65;99937.38;5032148;28;20555;-43
2024/02/27 07:25:00;;;;;;;61.25;28.75;;;;;;;8.87;82.82;99944.13;5030382;28;20045;-43
2024/02/27 07:27:26;;;;;;;59.10;28.10;;;;;;;9.21;82.21;99947.94;5031054;28;20543;-42
2024/02/27 07:29:51;;;;;;;61.78;28.05;;;;;;;9.55;80.81;99949.88;5030768;28;20026;-41
2024/02/27 07:32:16;;;;;;;58.42;27.88;;;;;;;9.43;81.21;99942.66;5030854;28;20023;-41
2024/02/27 07:34:42;;;;;;;55.83;27.55;;;;;;;9.77;80.22;99952.53;5030712;28;20549;-39
2024/02/27 07:37:10;;;;;;;54.72;26.30;;;;;;;9.28;81.06;99953.34;5030827;28;20030;-41
2024/02/27 07:39:36;;;;;;;54.30;26.52;;;;;;;9.38;80.83;99951.97;5029255;28;20029;-40
2024/02/27 07:42:02;;;;;;;56.00;27.30;;;;;;;9.61;79.67;99958.13;5029396;28;20030;-41
2024/02/27 07:44:28;;;;;;;54.75;24.55;;;;;;;9.39;80.10;99955.47;5028960;28;20073;-42
2024/02/27 07:46:53;;;;;;;53.67;25.58;;;;;;;9.44;80.16;99962.88;5029343;28;20453;-40
2024/02/27 07:49:18;;;;;;;54.25;26.65;;;;;;;9.89;78.79;99952.81;5029166;28;20044;-41
2024/02/27 07:51:44;;;;;;;51.67;26.60;;;;;;;9.67;79.45;99979.44;5029009;28;20058;-40
2024/02/27 07:54:10;;;;;;;49.38;25.83;;;;;;;9.91;77.89;99983.50;5030474;28;20116;-45
2024/02/27 07:56:35;;;;;;;47.92;24.98;;;;;;;10.35;75.46;99969.06;5034149;28;20109;-39
2024/02/27 07:59:01;;;;;;;50.40;24.98;;;;;;;10.42;75.95;99955.81;5034353;28;20053;-37
2024/02/27 08:01:26;;;;;;;49.42;25.20;;;;;;;11.07;72.53;99956.25;5034257;28;20083;-42
2024/02/27 08:03:52;;;;;;;45.33;24.25;;;;;;;10.56;74.27;99967.34;5034357;28;20021;-42
2024/02/27 08:06:19;;;;;;;45.40;24.45;;;;;;;10.10;76.36;99962.56;5034201;28;20427;-39
2024/02/27 08:08:45;;;;;;;42.78;23.27;;;;;;;10.12;76.11;99960.53;5034131;28;20022;-40
2024/02/27 08:11:10;;;;;;;46.08;24.27;;;;;;;10.84;74.29;99955.78;5034116;28;20114;-44
2024/02/27 08:13:35;;;;;;;46.75;24.45;;;;;;;11.07;72.24;99961.59;5033967;28;20022;-44
2024/02/27 08:16:01;;;;;;;43.30;22.30;;;;;;;11.48;70.50;99973.13;5034016;28;20107;-40
2024/02/27 08:18:26;;;;;;;44.58;23.00;;;;;;;11.43;69.84;99965.75;5033480;28;20020;-41
2024/02/27 08:20:52;;;;;;;43.00;22.83;;;;;;;11.67;69.22;99961.66;5033335;28;20596;-40
2024/02/27 08:23:18;;;;;;;41.22;21.55;;;;;;;11.65;69.10;99958.38;5033338;28;20422;-40
2024/02/27 08:25:44;;;;;;;37.30;21.33;;;;;;;11.22;70.71;99974.72;5033497;28;20041;-41
2024/02/27 08:28:10;;;;;;;35.60;21.38;;;;;;;11.54;70.21;99977.66;5033852;28;20055;-40
2024/02/27 08:30:35;;;;;;;35.25;20.67;;;;;;;12.03;66.86;99981.78;5033642;28;20036;-43
2024/02/27 08:33:00;;;;;;;33.33;18.42;;;;;;;11.71;66.83;99965.56;5033688;28;20029;-41
2024/02/27 08:35:26;;;;;;;34.15;19.80;;;;;;;12.49;65.27;99966.69;5033270;28;20495;-41
2024/02/27 08:37:52;;;;;;;33.78;18.52;;;;;;;13.03;62.66;99969.94;5033115;28;20031;-41
2024/02/27 08:40:17;;;;;;;30.05;18.00;;;;;;;13.41;61.70;99969.94;5033171;28;20017;-39
2024/02/27 08:42:43;;;;;;;32.60;17.95;;;;;;;12.68;63.02;99962.31;5033966;28;20045;-41
2024/02/27 08:45:09;;;;;;;29.83;16.95;;;;;;;11.82;66.13;99956.13;5033822;28;20496;-41
2024/02/27 08:47:35;;;;;;;35.72;20.00;;;;;;;12.70;64.32;99961.06;5033411;28;20033;-40
2024/02/27 08:50:01;;;;;;;33.92;19.27;;;;;;;13.01;62.44;99972.03;5033357;28;20029;-39
2024/02/27 08:52:26;;;;;;;31.35;19.42;;;;;;;13.14;62.56;99979.16;5033430;28;20025;-44
2024/02/27 08:54:52;;;;;;;30.33;17.77;;;;;;;13.00;63.23;99973.84;5033039;28;20554;-44
2024/02/27 08:57:17;;;;;;;37.47;14.93;;;;;;;13.25;61.95;99978.44;5033188;28;20540;-41
2024/02/27 08:59:47;;;;;;;26.85;15.35;;;;;;;13.42;61.10;99968.09;5032845;28;20115;-40
2024/02/27 09:02:13;;;;;;;21.45;13.15;;;;;;;13.88;59.14;99974.94;5033022;28;20036;-42
2024/02/27 09:04:39;;;;;;;21.17;12.85;;;;;;;13.63;59.73;99973.09;5032773;28;20021;-41
2024/02/27 09:07:04;;;;;;;21.40;13.35;;;;;;;13.77;58.89;99968.44;5032146;28;20104;-40
2024/02/27 09:09:30;;;;;;;20.23;12.85;;;;;;;13.91;58.90;99971.00;5033003;28;20025;-41
2024/02/27 09:11:55;;;;;;;23.95;13.95;;;;;;;13.19;60.85;99977.44;5033128;28;20449;-42
2024/02/27 09:14:22;;;;;;;20.58;14.23;;;;;;;13.63;59.66;99975.75;5032903;28;20030;-39
2024/02/27 09:16:47;;;;;;;22.33;13.93;;;;;;;13.74;59.80;99970.72;5032961;28;20450;-43
2024/02/27 09:19:13;;;;;;;19.95;12.98;;;;;;;13.85;57.41;99972.69;5032538;28;20057;-42
2024/02/27 09:21:38;;;;;;;21.83;14.02;;;;;;;13.61;58.39;99977.84;5032792;28;20018;-45
2024/02/27 09:24:04;;;;;;;20.80;13.15;;;;;;;13.10;61.33;99971.56;5032968;28;20031;-43
2024/02/27 09:26:30;;;;;;;22.10;13.60;;;;;;;13.42;60.27;99962.72;5032441;28;20057;-41
2024/02/27 09:28:56;;;;;;;21.60;14.05;;;;;;;13.77;58.63;99964.94;5032464;28;20052;-42
2024/02/27 09:31:22;;;;;;;20.42;13.52;;;;;;;13.57;59.39;99955.22;5032651;28;20481;-41
2024/02/27 09:33:47;;;;;;;22.55;13.43;;;;;;;13.64;59.92;99971.22;5032383;28;20109;-41
2024/02/27 09:36:12;;;;;;;20.25;13.05;;;;;;;14.24;58.43;99954.59;5032519;28;20025;-42
2024/02/27 09:38:38;;;;;;;20.02;12.23;;;;;;;14.78;55.14;99963.69;5032502;28;20389;-41
2024/02/27 09:41:03;;;;;;;22.00;12.13;;;;;;;14.74;55.10;99964.38;5032011;28;20128;-42
2024/02/27 09:43:30;;;;;;;22.42;11.95;;;;;;;14.81;54.27;99971.28;5032244;28;20036;-43
2024/02/27 09:46:01;;;;;;;19.05;12.40;;;;;;;14.89;54.44;99962.13;5032205;28;20032;-41
2024/02/27 09:48:29;;;;;;;20.42;12.93;;;;;;;15.03;53.22;99962.75;5032685;28;20100;-43
2024/02/27 09:50:56;;;;;;;22.40;13.50;;;;;;;15.28;52.56;99964.47;5032118;28;20029;-41
2024/02/27 09:53:23;;;;;;;20.00;12.63;;;;;;;15.41;54.33;99954.34;5032232;28;20030;-41
2024/02/27 09:55:51;;;;;;;19.35;12.82;;;;;;;15.06;54.02;99951.59;5032596;28;20102;-42
2024/02/27 09:58:18;;;;;;;22.67;13.80;;;;;;;15.00;54.29;99953.31;5032004;28;20425;-44
2024/02/27 10:00:43;;;;;;;23.20;13.98;;;;;;;15.05;54.44;99948.06;5031981;28;20048;-41
2024/02/27 10:03:09;;;;;;;21.20;13.50;;;;;;;14.68;55.25;99943.84;5031949;28;20026;-45
2024/02/27 10:05:37;;;;;;;23.50;13.18;;;;;;;15.25;53.75;99947.00;5031783;28;20028;-42
2024/02/27 10:08:07;;;;;;;20.92;12.90;;;;;;;14.88;54.37;99943.59;5031954;28;20021;-41
2024/02/27 10:10:33;;;;;;;21.13;13.07;;;;;;;15.03;52.98;99933.28;5031528;28;20036;-45
2024/02/27 10:12:59;;;;;;;20.42;11.98;;;;;;;15.39;52.10;99940.34;5031952;28;20108;-42
2024/02/27 10:15:24;;;;;;;19.15;11.25;;;;;;;15.22;52.20;99936.72;5031574;28;20017;-40
2024/02/27 10:17:52;;;;;;;15.43;10.65;;;;;;;14.54;54.50;99927.91;5031855;28;20029;-41
2024/02/27 10:20:20;;;;;;;18.05;12.05;;;;;;;14.72;55.15;99921.75;5031337;28;20035;-43
2024/02/27 10:22:45;;;;;;;17.63;11.38;;;;;;;14.77;55.18;99910.34;5031839;28;20069;-46
2024/02/27 10:25:11;;;;;;;16.98;10.00;;;;;;;15.69;51.75;99922.53;5031079;28;20072;-41
2024/02/27 10:27:37;;;;;;;17.35;10.95;;;;;;;15.88;50.93;99917.91;5031497;28;20045;-41
2024/02/27 10:30:05;;;;;;;16.83;10.82;;;;;;;16.07;50.68;99916.75;5031308;28;20482;-45
2024/02/27 10:32:32;;;;;;;16.40;10.77;;;;;;;16.09;50.26;99911.97;5031418;28;20084;-41
2024/02/27 10:34:58;;;;;;;16.88;9.68;;;;;;;16.21;48.65;99903.88;5031744;28;20025;-42
2024/02/27 10:37:24;;;;;;;18.30;10.95;;;;;;;16.25;48.86;99901.53;5031232;28;20382;-41
2024/02/27 10:39:50;;;;;;;15.43;10.18;;;;;;;16.64;49.02;99904.44;5031069;28;20197;-40
2024/02/27 10:42:16;;;;;;;17.70;10.15;;;;;;;16.15;49.40;99907.53;5030945;28;20025;-42
2024/02/27 10:44:42;;;;;;;18.15;9.85;;;;;;;16.32;49.33;99899.56;5031260;28;20036;-44
2024/02/27 10:47:07;;;;;;;16.30;10.25;;;;;;;15.82;48.60;99893.66;5031451;28;20077;-43
2024/02/27 10:49:34;;;;;;;13.85;9.68;;;;;;;16.23;49.16;99901.78;5030188;28;20025;-42
2024/02/27 10:52:00;;;;;;;16.55;10.45;;;;;;;16.60;48.16;99894.19;5030933;28;20551;-38
2024/02/27 10:54:26;;;;;;;15.10;9.45;;;;;;;16.42;48.65;99897.88;5031154;28;20021;-42
2024/02/27 10:56:57;;;;;;;20.02;9.73;;;;;;;16.24;49.34;99903.41;5031042;28;20079;-41
2024/02/27 10:59:27;;;;;;;17.30;10.05;;;;;;;15.52;50.57;99911.72;5030958;28;20021;-42
2024/02/27 11:01:53;;;;;;;22.42;10.20;;;;;;;15.88;50.54;99891.91;5031067;28;20057;-43
2024/02/27 11:04:22;;;;;;;14.90;9.80;;;;;;;16.50;49.12;99890.50;5031036;28;20105;-40
2024/02/27 11:06:50;;;;;;;13.85;9.10;;;;;;;16.59;48.51;99889.88;5029859;28;20060;-42
2024/02/27 11:09:24;;;;;;;13.63;8.50;;;;;;;16.89;45.63;99904.97;5030811;28;20497;-40
2024/02/27 11:11:52;;;;;;;12.63;7.68;;;;;;;16.74;45.33;99892.03;5030782;28;20398;-40
2024/02/27 11:14:23;;;;;;;16.48;8.57;;;;;;;17.29;45.05;99898.69;5031021;28;20485;-44
2024/02/27 11:16:53;;;;;;;11.63;8.48;;;;;;;17.80;43.03;99887.88;5030782;28;20064;-42
2024/02/27 11:19:24;;;;;;;12.95;8.07;;;;;;;18.55;41.84;99883.72;5030675;28;20524;-41
2024/02/27 11:21:51;;;;;;;15.90;8.07;;;;;;;19.03;40.46;99883.97;5030736;28;20017;-40